Time;durP1;ratioP1;P1;durP2;ratioP2;P2;SDS_P1;SDS_P2;PMS_P1;PMS_P2;Temp;Humidity;BMP_temperature;BMP_pressure;BME280_temperature;BME280_humidity;BME280_pressure;Samples;Min_cycle;Max_cycle;Signal;HPM_P1;HPM_P2
2021/09/22 00:00:08;;;;;;;12.05;2.00;;;18.60;51.90;;;;;;5070954;28;20230;-48
2021/09/22 00:02:38;;;;;;;7.93;1.90;;;18.60;51.80;;;;;;5070923;28;20220;-47
2021/09/22 00:05:09;;;;;;;9.55;1.80;;;18.60;52.00;;;;;;5070841;28;20624;-48
2021/09/22 00:07:39;;;;;;;9.15;1.95;;;18.70;52.60;;;;;;5070524;28;20280;-47
2021/09/22 00:10:11;;;;;;;7.80;2.20;;;18.70;51.90;;;;;;5070310;28;20280;-46
2021/09/22 00:12:43;;;;;;;11.13;2.90;;;18.70;52.00;;;;;;5071122;28;20222;-47
2021/09/22 00:15:14;;;;;;;7.38;3.20;;;18.70;52.30;;;;;;5070615;28;20203;-48
2021/09/22 00:17:45;;;;;;;8.43;2.20;;;18.80;52.50;;;;;;5068542;28;20698;-48
2021/09/22 00:20:15;;;;;;;11.25;2.75;;;18.80;52.60;;;;;;5070356;28;20721;-48
2021/09/22 00:22:46;;;;;;;6.95;2.38;;;18.80;52.60;;;;;;5069599;28;20276;-46
2021/09/22 00:25:16;;;;;;;7.15;2.45;;;18.80;52.70;;;;;;5072397;28;20241;-48
2021/09/22 00:27:49;;;;;;;8.35;2.55;;;18.80;52.60;;;;;;5074906;28;20250;-48
2021/09/22 00:30:19;;;;;;;7.10;2.67;;;18.80;52.60;;;;;;5074053;28;20375;-46
2021/09/22 00:32:51;;;;;;;8.48;2.33;;;18.80;52.60;;;;;;5073281;28;20245;-46
2021/09/22 00:35:22;;;;;;;14.07;2.83;;;18.90;52.60;;;;;;5072916;28;20282;-50
2021/09/22 00:37:53;;;;;;;14.32;2.75;;;18.90;52.60;;;;;;5073526;28;20269;-56
2021/09/22 00:40:24;;;;;;;9.98;2.50;;;18.90;52.50;;;;;;5090395;28;20259;-48
2021/09/22 00:42:56;;;;;;;16.60;2.90;;;18.90;52.50;;;;;;5094954;28;20194;-47
2021/09/22 00:45:27;;;;;;;10.43;2.70;;;18.90;52.50;;;;;;5073740;28;20293;-46
2021/09/22 00:47:57;;;;;;;12.75;2.67;;;18.90;52.50;;;;;;5073366;28;20246;-46
2021/09/22 00:50:27;;;;;;;10.30;2.45;;;19.00;52.50;;;;;;5074648;28;20311;-56
2021/09/22 00:52:58;;;;;;;6.97;2.13;;;18.90;52.60;;;;;;5073357;28;20253;-53
2021/09/22 00:55:28;;;;;;;11.02;2.55;;;19.00;52.80;;;;;;5074107;28;20234;-47
2021/09/22 00:58:01;;;;;;;5.47;2.15;;;19.00;52.80;;;;;;5058250;28;20247;-50
2021/09/22 01:00:31;;;;;;;7.55;2.10;;;19.00;52.90;;;;;;5053340;28;20231;-46
2021/09/22 01:03:02;;;;;;;8.52;2.63;;;19.00;52.90;;;;;;5053015;28;20286;-48
2021/09/22 01:05:32;;;;;;;4.75;2.55;;;19.00;53.00;;;;;;5054102;28;20286;-49
2021/09/22 01:08:05;;;;;;;7.65;2.60;;;19.10;53.10;;;;;;5063061;28;20270;-48
2021/09/22 01:10:35;;;;;;;10.30;2.40;;;19.10;52.90;;;;;;5073006;28;20794;-47
2021/09/22 01:13:07;;;;;;;8.90;2.60;;;19.10;52.90;;;;;;5074302;28;20282;-46
2021/09/22 01:15:38;;;;;;;8.05;2.53;;;19.10;53.00;;;;;;5053998;28;20227;-48
2021/09/22 01:18:11;;;;;;;6.25;2.30;;;19.10;52.90;;;;;;5053286;28;20262;-48
2021/09/22 01:20:42;;;;;;;6.40;2.03;;;19.10;52.80;;;;;;5053502;28;20214;-48
2021/09/22 01:23:15;;;;;;;6.78;2.80;;;19.10;52.80;;;;;;5054265;28;20199;-49
2021/09/22 01:25:46;;;;;;;5.20;2.00;;;19.20;52.80;;;;;;5072951;28;20199;-48
2021/09/22 01:28:16;;;;;;;4.75;2.20;;;19.20;52.70;;;;;;5080383;28;20245;-52
2021/09/22 01:30:47;;;;;;;5.93;3.10;;;19.20;52.70;;;;;;5084762;28;20254;-51
2021/09/22 01:33:17;;;;;;;8.13;3.13;;;19.20;52.80;;;;;;5081237;28;20288;-49
2021/09/22 01:35:48;;;;;;;6.38;3.05;;;19.20;52.90;;;;;;5072093;28;20527;-51
2021/09/22 01:38:22;;;;;;;7.32;3.20;;;19.20;52.90;;;;;;5073379;28;20297;-52
2021/09/22 01:40:58;;;;;;;4.68;2.60;;;19.20;52.90;;;;;;5073205;28;20213;-46
2021/09/22 01:43:28;;;;;;;6.93;2.55;;;19.20;52.90;;;;;;5072809;28;20194;-47
2021/09/22 01:45:59;;;;;;;5.28;2.50;;;19.20;52.80;;;;;;5072192;28;20262;-53
2021/09/22 01:48:29;;;;;;;6.05;3.03;;;19.20;52.70;;;;;;5072267;28;20309;-47
2021/09/22 01:51:00;;;;;;;5.40;2.90;;;19.20;52.70;;;;;;5072851;28;20257;-50
2021/09/22 01:53:32;;;;;;;6.30;2.97;;;19.30;52.80;;;;;;5072283;28;20231;-47
2021/09/22 01:56:03;;;;;;;7.57;2.53;;;19.30;52.80;;;;;;5072914;28;20234;-46
2021/09/22 01:58:34;;;;;;;4.45;2.50;;;19.30;52.70;;;;;;5072283;28;20246;-46
2021/09/22 02:01:05;;;;;;;5.85;2.65;;;19.30;52.70;;;;;;5072099;28;20217;-47
2021/09/22 02:03:35;;;;;;;4.97;2.50;;;19.40;52.70;;;;;;5072158;28;20288;-54
2021/09/22 02:06:05;;;;;;;4.15;2.13;;;19.40;52.70;;;;;;5072438;28;20286;-48
2021/09/22 02:08:39;;;;;;;5.30;2.40;;;19.40;52.80;;;;;;5071876;28;20288;-47
2021/09/22 02:11:10;;;;;;;5.72;2.28;;;19.40;52.70;;;;;;5071914;28;20291;-46
2021/09/22 02:13:40;;;;;;;8.05;2.97;;;19.40;52.80;;;;;;5072792;28;20226;-47
2021/09/22 02:16:11;;;;;;;5.13;2.70;;;19.40;52.80;;;;;;5071783;28;20603;-49
2021/09/22 02:18:41;;;;;;;5.57;2.65;;;19.40;52.80;;;;;;5072699;28;20254;-49
2021/09/22 02:21:11;;;;;;;4.38;2.42;;;19.40;52.80;;;;;;5072598;28;20290;-47
2021/09/22 02:23:44;;;;;;;4.25;2.60;;;19.40;52.80;;;;;;5072850;28;20658;-51
2021/09/22 02:26:14;;;;;;;6.38;3.08;;;19.50;52.80;;;;;;5072994;28;20734;-45
2021/09/22 02:28:45;;;;;;;6.15;3.10;;;19.50;52.90;;;;;;5072939;28;20645;-53
2021/09/22 02:31:15;;;;;;;5.60;2.30;;;19.50;52.90;;;;;;5072412;28;20572;-50
2021/09/22 02:33:45;;;;;;;5.25;2.20;;;19.50;52.90;;;;;;5072190;28;20670;-47
2021/09/22 02:36:16;;;;;;;5.40;2.15;;;19.50;52.90;;;;;;5072508;28;20604;-48
2021/09/22 02:38:48;;;;;;;4.20;2.45;;;19.50;52.80;;;;;;5072496;28;20744;-47
2021/09/22 02:41:19;;;;;;;5.47;2.40;;;19.50;52.70;;;;;;5072346;28;20641;-55
2021/09/22 02:43:49;;;;;;;3.95;2.30;;;19.60;52.70;;;;;;5072378;28;20681;-45
2021/09/22 02:46:19;;;;;;;3.70;1.98;;;19.60;52.70;;;;;;5071595;28;20226;-53
2021/09/22 02:48:50;;;;;;;4.70;2.30;;;19.60;52.80;;;;;;5062123;28;20727;-56
2021/09/22 02:51:20;;;;;;;6.10;2.40;;;19.60;52.80;;;;;;5052178;28;20719;-51
2021/09/22 02:53:53;;;;;;;4.00;2.15;;;19.60;52.80;;;;;;5052233;28;20203;-52
2021/09/22 02:56:23;;;;;;;4.80;2.17;;;19.60;52.80;;;;;;5052054;28;20200;-52
2021/09/22 02:58:53;;;;;;;2.35;1.85;;;19.70;52.80;;;;;;5051574;28;20622;-46
2021/09/22 03:01:24;;;;;;;2.72;2.03;;;19.70;52.80;;;;;;5051846;28;20605;-47
2021/09/22 03:03:54;;;;;;;5.68;2.28;;;19.70;52.80;;;;;;5051573;28;20654;-47
2021/09/22 03:06:26;;;;;;;3.50;2.20;;;19.70;52.70;;;;;;5054337;28;20219;-58
2021/09/22 03:08:58;;;;;;;2.50;2.03;;;19.70;52.70;;;;;;5068612;28;20276;-46
2021/09/22 03:11:28;;;;;;;3.60;2.03;;;19.70;52.70;;;;;;5071904;28;20261;-48
2021/09/22 03:13:59;;;;;;;5.53;2.20;;;19.70;52.70;;;;;;5071825;28;20290;-52
2021/09/22 03:16:31;;;;;;;3.85;2.00;;;19.70;52.70;;;;;;5070968;28;20241;-49
2021/09/22 03:19:02;;;;;;;3.55;1.85;;;19.80;52.70;;;;;;5070213;28;20704;-54
2021/09/22 03:21:32;;;;;;;4.05;1.95;;;19.80;52.70;;;;;;5070310;28;20371;-48
2021/09/22 03:24:05;;;;;;;3.92;2.10;;;19.80;52.70;;;;;;5070680;28;20219;-59
2021/09/22 03:26:35;;;;;;;3.72;1.75;;;19.80;52.70;;;;;;5071221;28;20253;-55
2021/09/22 03:29:06;;;;;;;4.07;2.10;;;19.80;52.70;;;;;;5070669;28;20283;-56
2021/09/22 03:31:36;;;;;;;2.78;1.70;;;19.90;52.80;;;;;;5070809;28;20252;-57
2021/09/22 03:34:07;;;;;;;4.55;2.10;;;19.90;52.70;;;;;;5071421;28;20243;-56
2021/09/22 03:36:37;;;;;;;3.72;2.20;;;19.80;52.70;;;;;;5071650;28;20249;-46
2021/09/22 03:39:09;;;;;;;3.97;1.83;;;19.90;52.60;;;;;;5071324;28;20223;-54
2021/09/22 03:41:40;;;;;;;3.58;1.73;;;19.90;52.60;;;;;;5071255;28;20426;-57
2021/09/22 03:44:10;;;;;;;4.38;1.90;;;19.90;52.60;;;;;;5071087;28;20241;-47
2021/09/22 03:46:41;;;;;;;2.95;1.90;;;19.90;52.50;;;;;;5071195;28;20642;-46
2021/09/22 03:49:11;;;;;;;2.88;1.77;;;19.90;53.10;;;;;;5071317;28;20214;-56
2021/09/22 03:51:42;;;;;;;3.30;1.77;;;19.90;52.50;;;;;;5071600;28;20231;-54
2021/09/22 03:54:14;;;;;;;2.97;1.85;;;20.00;52.50;;;;;;5071112;28;20256;-59
2021/09/22 03:56:44;;;;;;;4.70;2.28;;;20.00;52.60;;;;;;5067285;28;20230;-50
2021/09/22 03:59:15;;;;;;;4.47;2.00;;;20.00;52.50;;;;;;5070180;28;20251;-49
2021/09/22 04:01:49;;;;;;;3.95;2.05;;;20.00;52.50;;;;;;5070128;28;20291;-48
2021/09/22 04:04:19;;;;;;;2.95;1.80;;;20.00;52.40;;;;;;5070585;28;20199;-59
2021/09/22 04:06:50;;;;;;;2.97;1.83;;;20.00;52.40;;;;;;5070542;28;20267;-55
2021/09/22 04:09:22;;;;;;;3.90;1.75;;;20.00;52.40;;;;;;5070696;28;20762;-54
2021/09/22 04:11:53;;;;;;;2.72;1.70;;;20.00;52.40;;;;;;5070536;28;20301;-46
2021/09/22 04:14:23;;;;;;;4.75;2.13;;;20.00;52.40;;;;;;5071429;28;20233;-50
2021/09/22 04:16:54;;;;;;;4.15;1.88;;;20.10;52.40;;;;;;5070649;28;20230;-52
2021/09/22 04:19:24;;;;;;;2.45;1.70;;;20.10;52.40;;;;;;5070608;28;20269;-59
2021/09/22 04:21:55;;;;;;;3.72;2.00;;;20.10;52.30;;;;;;5070705;28;20233;-51
2021/09/22 04:24:27;;;;;;;3.55;1.92;;;20.10;52.20;;;;;;5069545;28;20662;-48
2021/09/22 04:26:58;;;;;;;3.10;1.70;;;20.10;52.20;;;;;;5070502;28;20194;-48
2021/09/22 04:29:28;;;;;;;3.90;1.80;;;20.10;52.20;;;;;;5070209;28;20265;-59
2021/09/22 04:31:58;;;;;;;2.72;1.58;;;20.10;52.30;;;;;;5070672;28;20665;-56
2021/09/22 04:34:29;;;;;;;3.45;1.92;;;20.10;52.20;;;;;;5070969;28;20252;-53
2021/09/22 04:36:59;;;;;;;4.97;1.95;;;20.10;52.30;;;;;;5071063;28;20234;-58
2021/09/22 04:39:32;;;;;;;2.90;1.92;;;20.10;52.30;;;;;;5071092;28;20214;-52
2021/09/22 04:42:02;;;;;;;2.33;1.55;;;20.10;52.20;;;;;;5070846;28;20237;-54
2021/09/22 04:44:32;;;;;;;3.30;1.88;;;20.10;52.20;;;;;;5070463;28;20441;-49
2021/09/22 04:47:03;;;;;;;4.15;1.83;;;20.10;52.20;;;;;;5070729;28;20290;-60
2021/09/22 04:49:33;;;;;;;4.18;2.10;;;20.10;52.30;;;;;;5070459;28;20254;-51
2021/09/22 04:52:04;;;;;;;2.33;1.45;;;20.10;52.30;;;;;;5070504;28;20258;-52
2021/09/22 04:54:36;;;;;;;3.47;1.70;;;20.10;52.30;;;;;;5071099;28;20290;-54
2021/09/22 04:57:07;;;;;;;3.55;1.50;;;20.10;52.40;;;;;;5070860;28;20241;-55
2021/09/22 04:59:37;;;;;;;2.85;1.73;;;20.10;52.40;;;;;;5053656;28;20247;-46
2021/09/22 05:02:08;;;;;;;2.30;1.73;;;20.10;52.30;;;;;;5068502;28;20276;-47
2021/09/22 05:04:38;;;;;;;3.38;1.70;;;20.10;52.20;;;;;;5068899;28;20218;-57
2021/09/22 06:38:26;;;;;;;16.35;8.25;;;18.30;54.30;;;;;;5017955;27;20553;-47
2021/09/22 06:40:56;;;;;;;16.10;7.35;;;19.10;54.80;;;;;;5005412;28;20229;-48
2021/09/22 06:43:27;;;;;;;14.75;6.90;;;19.30;54.30;;;;;;5005169;28;20284;-49
2021/09/22 06:46:00;;;;;;;21.13;7.43;;;19.30;53.80;;;;;;5005107;28;20250;-55
2021/09/22 06:48:30;;;;;;;9.75;6.65;;;19.40;53.50;;;;;;5005240;28;20259;-46
2021/09/22 06:51:01;;;;;;;16.08;6.90;;;19.50;53.30;;;;;;5005323;28;20601;-46
2021/09/22 06:53:37;;;;;;;13.10;6.68;;;19.50;53.20;;;;;;5005433;28;20291;-48
2021/09/22 06:56:08;;;;;;;9.45;6.28;;;19.50;53.00;;;;;;5005086;28;20322;-46
2021/09/22 06:58:38;;;;;;;14.13;6.28;;;19.50;52.90;;;;;;5005168;28;20321;-50
2021/09/22 07:01:08;;;;;;;11.35;6.82;;;19.50;52.80;;;;;;5005366;28;20228;-49
2021/09/22 07:03:39;;;;;;;13.60;6.60;;;19.60;52.80;;;;;;5020325;28;20258;-47
2021/09/22 07:06:11;;;;;;;13.15;6.55;;;19.50;52.70;;;;;;5025134;28;20303;-46
2021/09/22 07:08:44;;;;;;;13.75;6.05;;;19.60;52.60;;;;;;5024795;28;20263;-48
2021/09/22 07:11:14;;;;;;;10.43;6.13;;;19.60;52.60;;;;;;5024946;28;20231;-47
2021/09/22 07:13:44;;;;;;;11.95;5.80;;;19.50;52.50;;;;;;5025086;28;20246;-46
2021/09/22 07:16:16;;;;;;;10.95;6.22;;;19.60;52.60;;;;;;5024358;28;20320;-47
2021/09/22 07:18:47;;;;;;;10.02;5.78;;;19.50;52.50;;;;;;5024056;28;20361;-48
2021/09/22 07:21:17;;;;;;;9.15;5.57;;;19.50;52.50;;;;;;5023990;28;20296;-62
2021/09/22 07:23:50;;;;;;;9.45;5.60;;;19.50;52.40;;;;;;5024636;28;20273;-46
2021/09/22 07:26:20;;;;;;;9.38;6.07;;;19.50;52.40;;;;;;5024964;28;20566;-48
2021/09/22 07:28:51;;;;;;;10.88;5.68;;;19.50;52.30;;;;;;5025297;28;20217;-46
2021/09/22 07:31:21;;;;;;;8.73;5.45;;;19.50;52.30;;;;;;5024606;28;20199;-46
2021/09/22 07:33:52;;;;;;;13.13;6.00;;;19.50;52.30;;;;;;5024139;28;20244;-47
2021/09/22 07:36:23;;;;;;;7.75;5.60;;;19.50;52.20;;;;;;5024295;28;20314;-45
2021/09/22 07:38:55;;;;;;;8.30;5.82;;;19.50;52.20;;;;;;5013750;28;20232;-46
2021/09/22 07:41:25;;;;;;;6.53;4.95;;;19.40;52.10;;;;;;5011179;28;20240;-49
2021/09/22 07:43:56;;;;;;;7.68;5.18;;;19.50;52.20;;;;;;5011477;28;20632;-50
2021/09/22 07:46:26;;;;;;;9.73;5.50;;;19.50;52.10;;;;;;5011413;28;20539;-47
2021/09/22 07:48:57;;;;;;;12.07;5.80;;;19.50;52.20;;;;;;5011090;28;20252;-50
2021/09/22 07:51:27;;;;;;;9.13;5.43;;;19.40;52.10;;;;;;5011349;28;20235;-47
2021/09/22 07:54:00;;;;;;;9.95;5.50;;;19.40;52.10;;;;;;5011601;28;20644;-46
2021/09/22 07:56:30;;;;;;;7.85;5.47;;;19.40;52.10;;;;;;5011154;28;20256;-48
2021/09/22 07:59:00;;;;;;;9.85;5.57;;;19.40;52.10;;;;;;5010995;28;20696;-51
2021/09/22 08:01:31;;;;;;;6.80;5.13;;;19.40;52.10;;;;;;5011108;28;20672;-49
2021/09/22 08:04:01;;;;;;;7.85;5.00;;;19.40;52.10;;;;;;5010739;28;20803;-48
2021/09/22 08:06:32;;;;;;;16.33;5.05;;;19.40;52.10;;;;;;5010980;28;20675;-50
2021/09/22 08:09:04;;;;;;;7.20;4.85;;;19.30;52.00;;;;;;5010809;28;20643;-48
2021/09/22 08:11:34;;;;;;;9.05;4.70;;;19.30;52.00;;;;;;5011255;28;20235;-48
2021/09/22 08:14:05;;;;;;;5.97;4.45;;;19.30;52.00;;;;;;5010682;28;20236;-48
2021/09/22 08:16:35;;;;;;;8.93;5.00;;;19.30;52.10;;;;;;5010749;28;20260;-46
2021/09/22 08:19:06;;;;;;;8.07;4.63;;;19.30;52.00;;;;;;5010616;28;20272;-46
2021/09/22 08:21:36;;;;;;;7.22;4.55;;;19.30;52.00;;;;;;5010515;28;20602;-47
2021/09/22 08:24:09;;;;;;;6.28;4.20;;;19.20;51.90;;;;;;5010117;28;20249;-46
2021/09/22 08:26:39;;;;;;;6.00;4.43;;;19.20;52.00;;;;;;5010288;28;20204;-46
2021/09/22 08:29:10;;;;;;;8.07;4.57;;;19.20;51.90;;;;;;5011316;28;20252;-49
2021/09/22 08:31:40;;;;;;;5.80;4.55;;;19.20;51.90;;;;;;4999938;28;20231;-48
2021/09/22 08:34:10;;;;;;;6.57;4.20;;;19.20;51.90;;;;;;5009795;28;20232;-53
2021/09/22 08:36:41;;;;;;;7.32;5.05;;;19.20;52.00;;;;;;5010042;28;20305;-50
2021/09/22 08:39:13;;;;;;;4.82;3.58;;;19.10;51.90;;;;;;5008181;28;20213;-51
2021/09/22 08:41:44;;;;;;;8.02;4.47;;;19.10;51.90;;;;;;4993513;28;20209;-46
2021/09/22 08:44:14;;;;;;;5.97;4.38;;;19.10;51.90;;;;;;4991471;28;20529;-47
2021/09/22 08:46:45;;;;;;;6.80;4.78;;;19.10;51.90;;;;;;4990763;28;20236;-50
2021/09/22 08:49:15;;;;;;;5.65;4.50;;;19.00;51.90;;;;;;4989799;28;20245;-50
2021/09/22 08:51:46;;;;;;;5.80;4.60;;;19.10;51.90;;;;;;4990959;28;20236;-46
2021/09/22 08:54:18;;;;;;;5.95;4.75;;;19.00;51.80;;;;;;4991020;28;20236;-47
2021/09/22 08:56:48;;;;;;;6.57;4.65;;;19.00;51.90;;;;;;4990451;28;20303;-49
2021/09/22 08:59:19;;;;;;;6.20;4.63;;;19.00;51.90;;;;;;4992592;28;20229;-49
2021/09/22 09:02:08;;;;;;;5.75;4.50;;;19.00;51.80;;;;;;5009053;28;20229;-47
2021/09/22 09:04:38;;;;;;;7.38;4.10;;;19.00;51.80;;;;;;5008397;28;20253;-50
2021/09/22 09:07:09;;;;;;;9.18;4.72;;;19.00;51.80;;;;;;5007927;28;20237;-50
2021/09/22 09:09:42;;;;;;;7.47;4.45;;;18.90;51.80;;;;;;5008912;28;20243;-46
2021/09/22 09:12:19;;;;;;;5.32;3.95;;;18.90;51.80;;;;;;4990921;28;20628;-51
2021/09/22 09:14:55;;;;;;;7.40;4.28;;;18.90;51.80;;;;;;4988473;28;20205;-50
2021/09/22 09:17:39;;;;;;;5.53;4.60;;;18.90;51.80;;;;;;4989951;28;20256;-52
2021/09/22 09:20:20;;;;;;;6.22;4.05;;;18.80;51.80;;;;;;4988405;28;20202;-46
2021/09/22 09:23:05;;;;;;;5.15;4.05;;;18.80;51.80;;;;;;4989531;28;20229;-50
2021/09/22 09:25:38;;;;;;;5.10;3.97;;;18.80;51.80;;;;;;4989141;28;20206;-55
2021/09/22 09:28:25;;;;;;;5.53;3.92;;;18.80;51.80;;;;;;4989451;28;20222;-48
2021/09/22 09:30:59;;;;;;;5.05;4.03;;;18.80;51.80;;;;;;5001477;28;20274;-50
2021/09/22 09:33:50;;;;;;;6.82;4.22;;;18.80;51.90;;;;;;5007193;28;20236;-61
2021/09/22 09:36:28;;;;;;;6.10;4.25;;;18.70;51.80;;;;;;5010912;28;20251;-59
2021/09/22 09:39:02;;;;;;;4.88;3.90;;;18.70;51.70;;;;;;5004465;28;20216;-51
2021/09/22 09:41:36;;;;;;;6.53;3.78;;;18.70;51.80;;;;;;5008031;28;20648;-47
2021/09/22 09:44:08;;;;;;;5.22;4.40;;;18.70;51.80;;;;;;5008037;28;20190;-50
2021/09/22 09:46:38;;;;;;;4.85;3.83;;;18.60;51.70;;;;;;5009153;28;20232;-47
2021/09/22 09:49:10;;;;;;;4.45;3.45;;;18.60;51.80;;;;;;5006871;28;20268;-50
2021/09/22 09:51:42;;;;;;;4.72;3.92;;;18.60;51.80;;;;;;5007746;28;20220;-46
2021/09/22 09:54:20;;;;;;;6.30;4.20;;;18.60;51.80;;;;;;5008065;28;20255;-55
2021/09/22 09:56:52;;;;;;;5.93;3.72;;;18.60;51.80;;;;;;5007711;28;20256;-50
2021/09/22 09:59:25;;;;;;;9.55;4.25;;;18.50;51.80;;;;;;5007543;28;20243;-53
2021/09/22 10:01:59;;;;;;;33.25;6.05;;;18.50;51.80;;;;;;5005278;28;20197;-53
2021/09/22 10:04:29;;;;;;;21.45;4.82;;;18.50;51.80;;;;;;5008708;28;20220;-55
2021/09/22 10:07:00;;;;;;;19.60;5.50;;;18.50;51.90;;;;;;5007726;28;20201;-48
2021/09/22 10:09:30;;;;;;;10.18;3.97;;;18.50;51.80;;;;;;5006747;28;20347;-53
2021/09/22 10:12:02;;;;;;;8.85;4.35;;;18.50;51.90;;;;;;4995840;28;20229;-58
2021/09/22 10:14:33;;;;;;;10.98;4.63;;;18.50;51.90;;;;;;5008099;28;20229;-47
2021/09/22 10:17:03;;;;;;;13.27;4.82;;;18.40;51.80;;;;;;5006985;28;20312;-50
2021/09/22 10:19:34;;;;;;;10.55;4.60;;;18.40;51.80;;;;;;5008502;28;20703;-51
2021/09/22 10:22:04;;;;;;;9.80;4.28;;;18.40;51.80;;;;;;5008635;28;20243;-51
2021/09/22 10:24:35;;;;;;;8.80;4.78;;;18.40;51.80;;;;;;5007723;28;20236;-50
2021/09/22 10:27:14;;;;;;;8.68;4.65;;;18.40;51.90;;;;;;5008850;28;20301;-58
2021/09/22 10:29:57;;;;;;;5.55;4.18;;;18.30;51.80;;;;;;5006024;28;20197;-52
2021/09/22 10:32:37;;;;;;;7.10;4.40;;;18.30;52.40;;;;;;5007247;28;20197;-49
2021/09/22 10:35:37;;;;;;;7.43;4.47;;;18.30;51.80;;;;;;4990841;28;20248;-56
2021/09/22 10:38:40;;;;;;;9.23;4.55;;;18.30;51.80;;;;;;5001455;28;20221;-55
2021/09/22 10:41:11;;;;;;;7.68;4.22;;;18.20;51.70;;;;;;5007273;28;20608;-51
2021/09/22 10:43:43;;;;;;;7.03;4.25;;;18.20;51.70;;;;;;5002999;28;20200;-51
2021/09/22 10:46:18;;;;;;;6.15;4.25;;;18.20;51.80;;;;;;5006860;28;20248;-53
2021/09/22 10:49:02;;;;;;;5.82;4.13;;;18.20;51.90;;;;;;5007891;28;20256;-52
2021/09/22 10:51:33;;;;;;;6.07;3.63;;;18.20;52.50;;;;;;4993688;28;20634;-51
2021/09/22 10:54:13;;;;;;;6.93;3.90;;;18.20;51.90;;;;;;4988603;28;20221;-57
2021/09/22 10:56:55;;;;;;;6.88;4.18;;;18.10;51.80;;;;;;4988410;28;20347;-51
2021/09/22 10:59:31;;;;;;;5.00;3.72;;;18.10;51.80;;;;;;4988127;28;20256;-52
2021/09/22 11:02:02;;;;;;;5.93;4.10;;;18.10;51.80;;;;;;4989464;28;20495;-46
2021/09/22 11:04:56;;;;;;;6.38;3.70;;;18.10;51.80;;;;;;5007622;28;20197;-49
2021/09/22 11:07:26;;;;;;;5.65;3.50;;;18.10;51.90;;;;;;5007746;28;20268;-49
2021/09/22 11:09:57;;;;;;;5.70;3.80;;;18.10;51.90;;;;;;5007253;28;20228;-49
2021/09/22 11:12:28;;;;;;;5.50;4.05;;;18.00;51.80;;;;;;5007603;28;20202;-50
2021/09/22 11:15:03;;;;;;;4.75;3.55;;;18.00;51.90;;;;;;5011152;28;20232;-52
2021/09/22 11:17:34;;;;;;;8.43;4.05;;;18.00;51.90;;;;;;5011668;28;20228;-54
2021/09/22 11:20:05;;;;;;;4.60;3.67;;;18.00;51.90;;;;;;5011489;28;20201;-47
2021/09/22 11:22:38;;;;;;;5.32;3.92;;;18.00;52.00;;;;;;5011668;28;20193;-46
2021/09/22 11:25:09;;;;;;;4.65;3.70;;;18.00;52.00;;;;;;5011601;28;20197;-47
2021/09/22 11:27:40;;;;;;;4.93;3.78;;;17.90;51.90;;;;;;5012042;28;20260;-56
2021/09/22 11:30:13;;;;;;;4.88;3.63;;;17.90;51.90;;;;;;5011146;28;20684;-52
2021/09/22 11:32:43;;;;;;;5.20;3.63;;;18.00;52.00;;;;;;5011221;28;20652;-50
2021/09/22 11:35:16;;;;;;;4.57;3.55;;;17.90;51.90;;;;;;5011186;28;20302;-47
2021/09/22 11:37:46;;;;;;;4.10;3.20;;;17.90;51.90;;;;;;5011112;28;20264;-50
2021/09/22 11:40:18;;;;;;;3.72;3.28;;;17.90;51.90;;;;;;5011314;28;20469;-51
2021/09/22 11:43:00;;;;;;;5.38;3.40;;;17.90;52.00;;;;;;5011268;28;20197;-48
2021/09/22 11:45:37;;;;;;;6.07;3.50;;;17.80;51.90;;;;;;5011335;28;20201;-59
2021/09/22 11:48:08;;;;;;;3.80;3.28;;;17.80;51.90;;;;;;5011345;28;20225;-46
2021/09/22 11:50:39;;;;;;;4.63;3.60;;;17.80;51.90;;;;;;5011415;28;20228;-51
2021/09/22 11:53:10;;;;;;;4.85;3.42;;;17.80;52.00;;;;;;5001793;28;20242;-55
2021/09/22 11:55:41;;;;;;;3.50;3.20;;;17.80;52.00;;;;;;4999171;28;20226;-54
2021/09/22 11:58:12;;;;;;;3.95;3.38;;;17.80;52.00;;;;;;4999810;28;20321;-45
2021/09/22 12:00:44;;;;;;;5.18;3.17;;;17.70;52.00;;;;;;4999299;28;20197;-59
2021/09/22 12:03:15;;;;;;;4.30;3.38;;;17.80;52.00;;;;;;5000311;28;20250;-49
2021/09/22 12:05:45;;;;;;;4.55;3.40;;;17.70;52.00;;;;;;4999645;28;20225;-49
2021/09/22 12:08:16;;;;;;;4.43;3.05;;;17.70;52.00;;;;;;4999125;28;20269;-50
2021/09/22 12:10:46;;;;;;;3.30;3.00;;;17.70;52.00;;;;;;4999408;28;20276;-49
2021/09/22 12:13:17;;;;;;;4.63;3.10;;;17.70;52.00;;;;;;4998986;28;20280;-48
2021/09/22 12:15:49;;;;;;;6.10;3.88;;;17.70;52.00;;;;;;4999382;28;20190;-48
2021/09/22 12:18:19;;;;;;;5.88;3.65;;;17.70;52.00;;;;;;4998704;28;20324;-47
2021/09/22 12:20:50;;;;;;;3.95;3.17;;;17.70;52.00;;;;;;5007204;28;20236;-49
2021/09/22 12:23:27;;;;;;;4.53;3.22;;;17.70;52.00;;;;;;5010182;28;20235;-52
2021/09/22 12:26:10;;;;;;;3.88;3.33;;;17.70;52.00;;;;;;5010381;28;20228;-48
2021/09/22 12:28:41;;;;;;;3.97;3.20;;;17.60;52.00;;;;;;5011261;28;20228;-53
2021/09/22 12:31:20;;;;;;;4.03;3.25;;;17.60;52.00;;;;;;5010606;28;20228;-58
2021/09/22 12:33:50;;;;;;;3.50;2.78;;;17.60;52.60;;;;;;5008955;28;20200;-55
2021/09/22 12:36:21;;;;;;;4.05;3.53;;;17.60;52.10;;;;;;4990892;28;20248;-47
2021/09/22 12:38:52;;;;;;;3.72;3.20;;;17.60;52.10;;;;;;5009158;28;20315;-47
2021/09/22 12:41:23;;;;;;;4.53;3.45;;;17.60;52.10;;;;;;5011084;28;20201;-50
2021/09/22 12:44:02;;;;;;;3.97;3.28;;;17.60;52.10;;;;;;5010344;28;20666;-48
2021/09/22 12:46:40;;;;;;;3.03;2.72;;;17.50;52.00;;;;;;5008340;28;20199;-50
2021/09/22 12:49:21;;;;;;;3.45;2.95;;;17.60;52.10;;;;;;4990443;28;20222;-48
2021/09/22 12:51:52;;;;;;;5.03;3.42;;;17.50;52.00;;;;;;4990179;28;20263;-55
2021/09/22 12:54:22;;;;;;;4.40;3.30;;;17.50;52.00;;;;;;4990426;28;20692;-52
2021/09/22 12:56:53;;;;;;;3.88;3.17;;;17.50;52.00;;;;;;4990405;28;20641;-56
2021/09/22 12:59:28;;;;;;;3.28;2.95;;;17.50;52.10;;;;;;4990300;28;20279;-50
2021/09/22 13:02:01;;;;;;;4.30;3.58;;;17.50;52.00;;;;;;4991539;28;20239;-52
2021/09/22 13:04:31;;;;;;;4.22;3.17;;;17.50;52.00;;;;;;5009925;28;20676;-51
2021/09/22 13:07:03;;;;;;;4.15;3.75;;;17.50;52.00;;;;;;5009532;28;20741;-46
2021/09/22 13:09:34;;;;;;;4.53;3.10;;;17.50;52.10;;;;;;5009782;28;20216;-46
2021/09/22 13:12:04;;;;;;;3.38;3.00;;;17.40;52.00;;;;;;5009911;28;20247;-51
2021/09/22 13:14:39;;;;;;;4.72;3.40;;;17.40;52.10;;;;;;5009954;28;20228;-54
2021/09/22 13:17:11;;;;;;;3.72;3.28;;;17.40;52.10;;;;;;5009717;28;20283;-54
2021/09/22 13:19:42;;;;;;;3.22;2.88;;;17.40;52.10;;;;;;5009558;28;20260;-52
2021/09/22 13:22:12;;;;;;;4.03;3.25;;;17.40;52.10;;;;;;5009759;28;20196;-54
2021/09/22 13:24:43;;;;;;;3.42;3.13;;;17.40;52.10;;;;;;5009473;28;20236;-46
2021/09/22 13:27:20;;;;;;;4.15;3.30;;;17.40;52.10;;;;;;5009171;28;20267;-50
2021/09/22 13:29:50;;;;;;;4.88;3.30;;;17.30;52.00;;;;;;5009250;28;20203;-57
2021/09/22 13:32:23;;;;;;;3.30;3.00;;;17.40;52.10;;;;;;5009579;28;20297;-46
2021/09/22 13:34:55;;;;;;;3.20;2.90;;;17.30;52.10;;;;;;5009626;28;20232;-51
2021/09/22 13:37:26;;;;;;;4.32;3.08;;;17.30;52.00;;;;;;5009056;28;20274;-50
2021/09/22 13:39:56;;;;;;;4.10;3.35;;;17.30;52.00;;;;;;5008997;28;20260;-47
2021/09/22 13:42:27;;;;;;;3.47;3.17;;;17.30;52.00;;;;;;5008850;28;20250;-52
2021/09/22 13:44:57;;;;;;;3.85;3.17;;;17.30;52.10;;;;;;5009026;28;20260;-55
2021/09/22 13:47:30;;;;;;;3.45;2.83;;;17.30;52.10;;;;;;5009107;28;20252;-47
2021/09/22 13:50:00;;;;;;;4.07;3.38;;;17.30;52.10;;;;;;5009257;28;20233;-51
2021/09/22 13:52:30;;;;;;;3.70;3.03;;;17.20;52.10;;;;;;5009187;28;20224;-46
2021/09/22 13:55:01;;;;;;;4.32;3.00;;;17.20;52.10;;;;;;5009036;28;20350;-51
2021/09/22 13:57:31;;;;;;;4.07;2.97;;;17.20;52.10;;;;;;5009333;28;20249;-47
2021/09/22 14:00:02;;;;;;;3.17;2.88;;;17.20;52.10;;;;;;5009250;28;20260;-53
2021/09/22 14:02:34;;;;;;;3.28;2.50;;;17.10;52.00;;;;;;5009439;28;20243;-55
2021/09/22 14:05:05;;;;;;;3.13;2.75;;;17.20;52.10;;;;;;5008824;28;20223;-57
2021/09/22 14:07:35;;;;;;;4.07;2.95;;;17.10;52.00;;;;;;5008673;28;20256;-47
2021/09/22 14:10:06;;;;;;;3.45;2.78;;;17.10;52.00;;;;;;5009293;28;20285;-48
2021/09/22 14:12:36;;;;;;;3.47;2.90;;;17.20;52.20;;;;;;5009257;28;20232;-46
2021/09/22 14:15:07;;;;;;;4.40;2.78;;;17.10;52.00;;;;;;5009274;28;20196;-48
2021/09/22 14:17:39;;;;;;;4.05;2.97;;;17.10;52.00;;;;;;5009057;28;20248;-48
2021/09/22 14:20:10;;;;;;;3.25;2.95;;;17.10;52.00;;;;;;5008796;28;20260;-50
2021/09/22 14:22:41;;;;;;;3.92;3.03;;;17.10;52.10;;;;;;5008995;28;20640;-50
2021/09/22 14:25:12;;;;;;;3.22;2.90;;;17.10;52.10;;;;;;5008705;28;20691;-48
2021/09/22 14:27:42;;;;;;;3.85;3.03;;;17.10;52.10;;;;;;5008877;28;20221;-47
2021/09/22 14:30:13;;;;;;;3.25;2.70;;;17.00;52.10;;;;;;5008968;28;20232;-52
2021/09/22 14:32:46;;;;;;;3.42;2.47;;;17.00;52.10;;;;;;5008688;28;20208;-46
2021/09/22 14:35:16;;;;;;;3.88;2.47;;;17.00;52.10;;;;;;5009044;28;20610;-46
2021/09/22 14:37:47;;;;;;;3.00;2.75;;;17.00;52.10;;;;;;5000873;28;20249;-55
2021/09/22 14:40:17;;;;;;;3.33;2.75;;;17.00;52.10;;;;;;4989510;28;20708;-54